sensor_id;sensor_type;location;lat;lon;timestamp;pressure;altitude;pressure_sealevel;temperature;humidity
44103;BME280;29769;42.178;24.742;2023-02-22T00:00:17;99400.38;;;9.52;50.59
44103;BME280;29769;42.178;24.742;2023-02-22T00:03:02;99422.97;;;10.15;49.13
44103;BME280;29769;42.178;24.742;2023-02-22T00:05:47;99429.22;;;10.08;49.01
44103;BME280;29769;42.178;24.742;2023-02-22T00:08:36;99442.09;;;9.71;51.02
44103;BME280;29769;42.178;24.742;2023-02-22T00:11:21;99433.28;;;9.75;50.19
44103;BME280;29769;42.178;24.742;2023-02-22T00:14:06;99428.06;;;10.24;48.32
44103;BME280;29769;42.178;24.742;2023-02-22T00:16:50;99418.84;;;10.93;46.08
44103;BME280;29769;42.178;24.742;2023-02-22T00:19:35;99424.94;;;11.35;44.68
44103;BME280;29769;42.178;24.742;2023-02-22T00:22:20;99417.63;;;11.47;43.75
44103;BME280;29769;42.178;24.742;2023-02-22T00:25:05;99427.28;;;11.47;44.02
44103;BME280;29769;42.178;24.742;2023-02-22T00:27:50;99409.00;;;11.78;43.29
44103;BME280;29769;42.178;24.742;2023-02-22T00:30:36;99410.69;;;12.16;42.00
44103;BME280;29769;42.178;24.742;2023-02-22T00:33:21;99424.38;;;12.30;41.29
44103;BME280;29769;42.178;24.742;2023-02-22T00:36:07;99411.13;;;12.31;41.58
44103;BME280;29769;42.178;24.742;2023-02-22T00:38:52;99413.06;;;12.25;41.72
44103;BME280;29769;42.178;24.742;2023-02-22T00:41:37;99413.47;;;12.10;41.58
44103;BME280;29769;42.178;24.742;2023-02-22T00:44:22;99436.22;;;11.78;43.29
44103;BME280;29769;42.178;24.742;2023-02-22T00:47:07;99428.72;;;11.60;43.29
44103;BME280;29769;42.178;24.742;2023-02-22T00:49:52;99433.81;;;11.68;43.25
44103;BME280;29769;42.178;24.742;2023-02-22T00:52:37;99422.31;;;11.72;43.13
44103;BME280;29769;42.178;24.742;2023-02-22T00:55:28;99438.63;;;11.87;42.67
44103;BME280;29769;42.178;24.742;2023-02-22T00:58:14;99444.78;;;11.09;45.19
44103;BME280;29769;42.178;24.742;2023-02-22T01:00:59;99447.75;;;10.50;47.04
44103;BME280;29769;42.178;24.742;2023-02-22T01:03:43;99442.75;;;10.36;47.43
44103;BME280;29769;42.178;24.742;2023-02-22T01:06:28;99447.75;;;10.94;45.63
44103;BME280;29769;42.178;24.742;2023-02-22T01:09:13;99440.31;;;11.13;44.90
44103;BME280;29769;42.178;24.742;2023-02-22T01:11:59;99444.38;;;11.29;44.38
44103;BME280;29769;42.178;24.742;2023-02-22T01:14:44;99440.06;;;10.85;45.85
44103;BME280;29769;42.178;24.742;2023-02-22T01:17:29;99434.97;;;10.76;45.83
44103;BME280;29769;42.178;24.742;2023-02-22T01:20:16;99429.63;;;10.81;45.82
44103;BME280;29769;42.178;24.742;2023-02-22T01:23:02;99436.59;;;10.82;45.55
44103;BME280;29769;42.178;24.742;2023-02-22T01:25:49;99425.75;;;10.97;45.33
44103;BME280;29769;42.178;24.742;2023-02-22T01:28:36;99405.84;;;10.85;45.28
44103;BME280;29769;42.178;24.742;2023-02-22T01:31:21;99406.94;;;11.15;44.49
44103;BME280;29769;42.178;24.742;2023-02-22T01:34:07;99416.66;;;11.50;44.01
44103;BME280;29769;42.178;24.742;2023-02-22T01:36:53;99403.59;;;11.84;43.06
44103;BME280;29769;42.178;24.742;2023-02-22T01:39:38;99405.66;;;12.07;42.74
44103;BME280;29769;42.178;24.742;2023-02-22T01:42:24;99403.69;;;12.13;42.17
44103;BME280;29769;42.178;24.742;2023-02-22T01:48:19;99408.66;;;12.25;42.08
44103;BME280;29769;42.178;24.742;2023-02-22T01:51:18;99402.66;;;12.20;41.84
44103;BME280;29769;42.178;24.742;2023-02-22T01:54:25;99412.19;;;12.26;41.59
44103;BME280;29769;42.178;24.742;2023-02-22T01:57:20;99418.69;;;12.13;41.92
44103;BME280;29769;42.178;24.742;2023-02-22T02:00:13;99441.69;;;12.06;41.97
44103;BME280;29769;42.178;24.742;2023-02-22T02:03:04;99437.84;;;11.84;43.01
44103;BME280;29769;42.178;24.742;2023-02-22T02:05:51;99438.22;;;11.67;43.70
44103;BME280;29769;42.178;24.742;2023-02-22T02:08:47;99439.72;;;11.40;43.72
44103;BME280;29769;42.178;24.742;2023-02-22T02:11:35;99424.88;;;11.36;43.76
44103;BME280;29769;42.178;24.742;2023-02-22T02:14:23;99427.25;;;11.48;43.78
44103;BME280;29769;42.178;24.742;2023-02-22T02:17:12;99419.56;;;11.39;43.50
44103;BME280;29769;42.178;24.742;2023-02-22T02:20:03;99437.91;;;11.42;43.75
44103;BME280;29769;42.178;24.742;2023-02-22T02:29:12;99439.91;;;11.31;44.07
44103;BME280;29769;42.178;24.742;2023-02-22T02:41:07;99440.25;;;10.75;46.09
44103;BME280;29769;42.178;24.742;2023-02-22T02:50:08;99456.94;;;10.72;46.12
44103;BME280;29769;42.178;24.742;2023-02-22T02:52:56;99460.16;;;10.43;46.94
44103;BME280;29769;42.178;24.742;2023-02-22T02:55:44;99469.81;;;10.43;46.79
44103;BME280;29769;42.178;24.742;2023-02-22T02:58:30;99443.91;;;10.21;47.17
44103;BME280;29769;42.178;24.742;2023-02-22T03:16:20;99467.41;;;9.75;48.67
44103;BME280;29769;42.178;24.742;2023-02-22T03:19:25;99460.56;;;9.65;49.01
44103;BME280;29769;42.178;24.742;2023-02-22T03:22:14;99477.19;;;9.67;48.90
44103;BME280;29769;42.178;24.742;2023-02-22T03:25:06;99487.72;;;9.64;49.05
44103;BME280;29769;42.178;24.742;2023-02-22T03:27:54;99479.84;;;9.64;49.13
44103;BME280;29769;42.178;24.742;2023-02-22T03:30:50;99486.88;;;9.62;49.31
44103;BME280;29769;42.178;24.742;2023-02-22T03:34:09;99491.47;;;9.47;49.64
44103;BME280;29769;42.178;24.742;2023-02-22T03:36:59;99495.09;;;9.40;49.92
44103;BME280;29769;42.178;24.742;2023-02-22T03:39:46;99496.97;;;9.30;50.71
44103;BME280;29769;42.178;24.742;2023-02-22T03:42:35;99492.72;;;9.20;50.83
44103;BME280;29769;42.178;24.742;2023-02-22T03:45:26;99492.66;;;9.23;50.79
44103;BME280;29769;42.178;24.742;2023-02-22T03:48:26;99496.16;;;9.26;50.74
44103;BME280;29769;42.178;24.742;2023-02-22T03:51:14;99493.53;;;9.23;50.83
44103;BME280;29769;42.178;24.742;2023-02-22T03:54:02;99494.34;;;9.27;50.79
44103;BME280;29769;42.178;24.742;2023-02-22T03:56:56;99494.41;;;9.25;50.74
44103;BME280;29769;42.178;24.742;2023-02-22T03:59:42;99462.22;;;9.13;50.40
44103;BME280;29769;42.178;24.742;2023-02-22T04:02:27;99493.06;;;9.58;49.44
44103;BME280;29769;42.178;24.742;2023-02-22T04:05:12;99495.53;;;9.69;49.20
44103;BME280;29769;42.178;24.742;2023-02-22T04:07:58;99470.41;;;9.53;49.45
44103;BME280;29769;42.178;24.742;2023-02-22T04:10:44;99481.91;;;9.43;50.28
44103;BME280;29769;42.178;24.742;2023-02-22T04:13:29;99503.66;;;9.52;49.88
44103;BME280;29769;42.178;24.742;2023-02-22T04:16:15;99503.44;;;9.67;48.83
44103;BME280;29769;42.178;24.742;2023-02-22T04:19:00;99496.13;;;9.88;48.12
44103;BME280;29769;42.178;24.742;2023-02-22T04:21:45;99499.75;;;9.77;48.40
44103;BME280;29769;42.178;24.742;2023-02-22T04:24:37;99498.88;;;9.80;48.75
44103;BME280;29769;42.178;24.742;2023-02-22T04:27:22;99491.59;;;9.96;47.71
44103;BME280;29769;42.178;24.742;2023-02-22T04:30:08;99494.81;;;10.17;46.80
44103;BME280;29769;42.178;24.742;2023-02-22T04:32:55;99475.41;;;10.23;46.29
44103;BME280;29769;42.178;24.742;2023-02-22T04:35:41;99493.47;;;10.41;46.01
44103;BME280;29769;42.178;24.742;2023-02-22T04:38:26;99478.41;;;10.51;45.22
44103;BME280;29769;42.178;24.742;2023-02-22T04:41:12;99467.81;;;10.54;44.93
44103;BME280;29769;42.178;24.742;2023-02-22T04:43:57;99484.03;;;10.79;44.52
44103;BME280;29769;42.178;24.742;2023-02-22T04:46:44;99477.91;;;10.77;44.32
44103;BME280;29769;42.178;24.742;2023-02-22T04:49:32;99467.34;;;10.80;44.37
44103;BME280;29769;42.178;24.742;2023-02-22T04:52:17;99489.19;;;10.83;44.29
44103;BME280;29769;42.178;24.742;2023-02-22T04:55:02;99460.69;;;10.62;44.79
44103;BME280;29769;42.178;24.742;2023-02-22T04:57:49;99481.56;;;10.71;45.08
44103;BME280;29769;42.178;24.742;2023-02-22T05:00:35;99493.88;;;10.67;45.48
44103;BME280;29769;42.178;24.742;2023-02-22T05:03:20;99489.63;;;10.60;45.23
44103;BME280;29769;42.178;24.742;2023-02-22T05:06:06;99488.84;;;10.57;45.73
44103;BME280;29769;42.178;24.742;2023-02-22T05:08:51;99483.75;;;10.46;46.13
44103;BME280;29769;42.178;24.742;2023-02-22T05:11:36;99491.81;;;10.37;46.49
44103;BME280;29769;42.178;24.742;2023-02-22T05:14:21;99484.22;;;10.20;47.38
44103;BME280;29769;42.178;24.742;2023-02-22T05:17:06;99488.72;;;10.12;47.78
44103;BME280;29769;42.178;24.742;2023-02-22T05:19:51;99476.44;;;10.13;47.34
44103;BME280;29769;42.178;24.742;2023-02-22T05:22:36;99494.00;;;10.09;47.74
44103;BME280;29769;42.178;24.742;2023-02-22T05:25:21;99502.63;;;10.19;47.65
44103;BME280;29769;42.178;24.742;2023-02-22T05:28:13;99469.88;;;10.40;46.41
44103;BME280;29769;42.178;24.742;2023-02-22T05:30:59;99482.63;;;10.59;46.25
44103;BME280;29769;42.178;24.742;2023-02-22T05:33:43;99492.78;;;10.79;45.63
44103;BME280;29769;42.178;24.742;2023-02-22T05:36:28;99510.00;;;10.95;44.75
44103;BME280;29769;42.178;24.742;2023-02-22T05:39:13;99504.59;;;11.03;44.73
44103;BME280;29769;42.178;24.742;2023-02-22T05:41:58;99501.81;;;11.09;44.71
44103;BME280;29769;42.178;24.742;2023-02-22T05:44:43;99506.09;;;11.16;44.89
44103;BME280;29769;42.178;24.742;2023-02-22T05:47:28;99506.09;;;11.16;45.15
44103;BME280;29769;42.178;24.742;2023-02-22T05:50:14;99509.41;;;11.24;45.09
44103;BME280;29769;42.178;24.742;2023-02-22T05:53:00;99510.81;;;11.40;44.22
44103;BME280;29769;42.178;24.742;2023-02-22T05:55:45;99503.75;;;11.44;44.37
44103;BME280;29769;42.178;24.742;2023-02-22T05:58:30;99515.88;;;11.51;44.61
44103;BME280;29769;42.178;24.742;2023-02-22T06:01:15;99519.34;;;11.53;45.15
44103;BME280;29769;42.178;24.742;2023-02-22T06:04:00;99524.44;;;11.60;44.56
44103;BME280;29769;42.178;24.742;2023-02-22T06:06:45;99529.69;;;11.62;45.23
44103;BME280;29769;42.178;24.742;2023-02-22T06:09:30;99527.84;;;11.66;45.28
44103;BME280;29769;42.178;24.742;2023-02-22T06:12:15;99518.69;;;11.83;44.36
44103;BME280;29769;42.178;24.742;2023-02-22T06:15:00;99527.81;;;12.06;43.19
44103;BME280;29769;42.178;24.742;2023-02-22T06:17:45;99515.63;;;12.00;43.44
44103;BME280;29769;42.178;24.742;2023-02-22T06:20:30;99532.28;;;12.02;44.16
44103;BME280;29769;42.178;24.742;2023-02-22T06:23:15;99528.91;;;11.97;43.91
44103;BME280;29769;42.178;24.742;2023-02-22T06:26:00;99522.78;;;11.95;43.78
44103;BME280;29769;42.178;24.742;2023-02-22T06:28:45;99542.81;;;12.03;43.75
44103;BME280;29769;42.178;24.742;2023-02-22T06:31:30;99540.28;;;11.99;44.22
44103;BME280;29769;42.178;24.742;2023-02-22T06:34:15;99552.72;;;11.92;43.80
44103;BME280;29769;42.178;24.742;2023-02-22T06:37:00;99551.06;;;11.90;43.88
44103;BME280;29769;42.178;24.742;2023-02-22T06:39:44;99539.66;;;11.88;43.64
44103;BME280;29769;42.178;24.742;2023-02-22T06:42:29;99551.34;;;12.13;42.91
44103;BME280;29769;42.178;24.742;2023-02-22T06:45:16;99562.31;;;12.32;42.83
44103;BME280;29769;42.178;24.742;2023-02-22T06:48:00;99561.34;;;13.36;42.22
44103;BME280;29769;42.178;24.742;2023-02-22T06:50:45;99552.47;;;14.78;39.69
44103;BME280;29769;42.178;24.742;2023-02-22T06:53:30;99545.56;;;16.36;37.02
44103;BME280;29769;42.178;24.742;2023-02-22T06:56:15;99557.06;;;17.78;34.30
44103;BME280;29769;42.178;24.742;2023-02-22T06:59:00;99550.00;;;18.85;32.45
44103;BME280;29769;42.178;24.742;2023-02-22T07:01:47;99527.34;;;20.08;30.38
44103;BME280;29769;42.178;24.742;2023-02-22T07:04:32;99543.72;;;21.09;29.30
44103;BME280;29769;42.178;24.742;2023-02-22T07:07:21;99541.81;;;22.24;27.35
44103;BME280;29769;42.178;24.742;2023-02-22T07:10:07;99541.22;;;22.99;26.40
44103;BME280;29769;42.178;24.742;2023-02-22T07:12:59;99534.56;;;23.81;25.66
44103;BME280;29769;42.178;24.742;2023-02-22T07:15:45;99536.63;;;24.50;24.74
44103;BME280;29769;42.178;24.742;2023-02-22T07:18:30;99531.19;;;24.63;24.65
44103;BME280;29769;42.178;24.742;2023-02-22T07:21:15;99535.50;;;25.46;23.79
44103;BME280;29769;42.178;24.742;2023-02-22T07:24:00;99523.97;;;25.44;23.59
44103;BME280;29769;42.178;24.742;2023-02-22T07:26:44;99529.00;;;26.59;22.32
44103;BME280;29769;42.178;24.742;2023-02-22T07:29:29;99533.19;;;26.94;21.92
44103;BME280;29769;42.178;24.742;2023-02-22T07:32:15;99527.53;;;26.97;21.78
44103;BME280;29769;42.178;24.742;2023-02-22T07:34:59;99525.78;;;24.15;23.42
44103;BME280;29769;42.178;24.742;2023-02-22T07:37:46;99523.03;;;21.55;25.98
44103;BME280;29769;42.178;24.742;2023-02-22T07:40:31;99518.66;;;20.96;27.01
44103;BME280;29769;42.178;24.742;2023-02-22T07:43:24;99520.41;;;20.21;27.96
44103;BME280;29769;42.178;24.742;2023-02-22T07:46:10;99519.38;;;19.92;28.45
44103;BME280;29769;42.178;24.742;2023-02-22T07:48:55;99523.06;;;19.41;28.45
44103;BME280;29769;42.178;24.742;2023-02-22T07:51:40;99515.75;;;19.78;28.78
44103;BME280;29769;42.178;24.742;2023-02-22T07:54:26;99500.38;;;20.28;27.56
44103;BME280;29769;42.178;24.742;2023-02-22T07:57:11;99509.31;;;20.59;27.59
44103;BME280;29769;42.178;24.742;2023-02-22T07:59:57;99505.47;;;20.17;27.84
44103;BME280;29769;42.178;24.742;2023-02-22T08:02:42;99493.94;;;20.01;27.82
44103;BME280;29769;42.178;24.742;2023-02-22T08:05:27;99490.75;;;20.26;28.13
44103;BME280;29769;42.178;24.742;2023-02-22T08:08:12;99485.31;;;20.27;27.69
44103;BME280;29769;42.178;24.742;2023-02-22T08:11:00;99499.22;;;20.64;27.65
44103;BME280;29769;42.178;24.742;2023-02-22T08:13:45;99492.59;;;20.99;27.10
44103;BME280;29769;42.178;24.742;2023-02-22T08:16:30;99503.72;;;21.21;27.13
44103;BME280;29769;42.178;24.742;2023-02-22T08:19:14;99482.56;;;20.89;27.36
44103;BME280;29769;42.178;24.742;2023-02-22T08:21:59;99495.63;;;21.37;26.97
44103;BME280;29769;42.178;24.742;2023-02-22T08:24:44;99490.25;;;21.80;26.30
44103;BME280;29769;42.178;24.742;2023-02-22T08:27:29;99470.44;;;21.68;26.89
44103;BME280;29769;42.178;24.742;2023-02-22T08:30:17;99467.31;;;21.61;26.52
44103;BME280;29769;42.178;24.742;2023-02-22T08:33:03;99470.19;;;21.44;26.70
44103;BME280;29769;42.178;24.742;2023-02-22T08:35:48;99460.84;;;21.51;26.66
44103;BME280;29769;42.178;24.742;2023-02-22T08:38:33;99468.94;;;21.50;26.99
44103;BME280;29769;42.178;24.742;2023-02-22T08:41:18;99451.38;;;21.87;26.29
44103;BME280;29769;42.178;24.742;2023-02-22T08:44:03;99440.09;;;21.96;26.33
44103;BME280;29769;42.178;24.742;2023-02-22T08:46:47;99468.34;;;22.14;25.92
44103;BME280;29769;42.178;24.742;2023-02-22T08:49:32;99447.34;;;22.47;25.46
44103;BME280;29769;42.178;24.742;2023-02-22T08:52:18;99450.22;;;22.44;25.56
44103;BME280;29769;42.178;24.742;2023-02-22T08:55:04;99459.22;;;22.70;25.29
44103;BME280;29769;42.178;24.742;2023-02-22T08:57:50;99464.16;;;22.49;25.55
44103;BME280;29769;42.178;24.742;2023-02-22T09:00:35;99453.69;;;22.59;25.69
44103;BME280;29769;42.178;24.742;2023-02-22T09:03:22;99472.66;;;23.33;24.71
44103;BME280;29769;42.178;24.742;2023-02-22T09:06:07;99460.09;;;23.34;25.02
44103;BME280;29769;42.178;24.742;2023-02-22T09:08:51;99450.97;;;23.11;24.75
44103;BME280;29769;42.178;24.742;2023-02-22T09:11:36;99454.56;;;23.73;24.96
44103;BME280;29769;42.178;24.742;2023-02-22T09:14:20;99443.56;;;23.27;24.68
44103;BME280;29769;42.178;24.742;2023-02-22T09:17:05;99455.69;;;23.45;24.93
44103;BME280;29769;42.178;24.742;2023-02-22T09:19:50;99459.16;;;23.71;24.36
44103;BME280;29769;42.178;24.742;2023-02-22T09:22:35;99444.72;;;24.21;24.11
44103;BME280;29769;42.178;24.742;2023-02-22T09:25:20;99445.16;;;24.15;24.15
44103;BME280;29769;42.178;24.742;2023-02-22T09:28:05;99440.00;;;24.25;24.16
44103;BME280;29769;42.178;24.742;2023-02-22T09:30:50;99435.72;;;24.10;24.05
44103;BME280;29769;42.178;24.742;2023-02-22T09:33:35;99436.19;;;24.62;23.60
44103;BME280;29769;42.178;24.742;2023-02-22T09:36:19;99444.34;;;24.85;23.42
44103;BME280;29769;42.178;24.742;2023-02-22T09:39:05;99448.09;;;25.28;23.55
44103;BME280;29769;42.178;24.742;2023-02-22T09:41:55;99418.69;;;26.12;22.30
44103;BME280;29769;42.178;24.742;2023-02-22T09:45:05;99441.94;;;25.04;23.30
44103;BME280;29769;42.178;24.742;2023-02-22T09:47:56;99436.50;;;26.04;22.11
44103;BME280;29769;42.178;24.742;2023-02-22T09:50:44;99425.34;;;25.54;22.99
44103;BME280;29769;42.178;24.742;2023-02-22T09:53:43;99406.22;;;25.46;22.19
44103;BME280;29769;42.178;24.742;2023-02-22T09:56:31;99428.03;;;25.65;22.30
44103;BME280;29769;42.178;24.742;2023-02-22T09:59:23;99421.66;;;26.52;21.65
44103;BME280;29769;42.178;24.742;2023-02-22T10:02:22;99380.78;;;25.39;22.59
44103;BME280;29769;42.178;24.742;2023-02-22T10:08:14;99416.03;;;25.58;22.62
44103;BME280;29769;42.178;24.742;2023-02-22T10:11:13;99400.16;;;26.30;21.71
44103;BME280;29769;42.178;24.742;2023-02-22T10:17:12;99397.09;;;27.58;20.29
44103;BME280;29769;42.178;24.742;2023-02-22T10:23:45;99397.34;;;27.15;20.64
44103;BME280;29769;42.178;24.742;2023-02-22T10:26:39;99389.47;;;27.82;20.03
44103;BME280;29769;42.178;24.742;2023-02-22T10:32:20;99371.31;;;28.32;19.69
44103;BME280;29769;42.178;24.742;2023-02-22T10:35:34;99363.06;;;28.14;19.94
44103;BME280;29769;42.178;24.742;2023-02-22T10:38:30;99360.75;;;28.10;19.57
44103;BME280;29769;42.178;24.742;2023-02-22T10:41:31;99348.44;;;27.58;20.17
44103;BME280;29769;42.178;24.742;2023-02-22T10:44:18;99343.09;;;27.96;20.16
44103;BME280;29769;42.178;24.742;2023-02-22T10:47:05;99351.31;;;29.18;18.96
44103;BME280;29769;42.178;24.742;2023-02-22T10:49:57;99328.84;;;27.65;19.72
44103;BME280;29769;42.178;24.742;2023-02-22T10:52:43;99332.41;;;27.26;20.11
44103;BME280;29769;42.178;24.742;2023-02-22T10:55:28;99321.94;;;28.30;20.09
44103;BME280;29769;42.178;24.742;2023-02-22T10:58:13;99306.19;;;27.47;20.06
44103;BME280;29769;42.178;24.742;2023-02-22T11:00:58;99303.59;;;26.66;21.09
44103;BME280;29769;42.178;24.742;2023-02-22T11:03:42;99322.34;;;25.94;21.44
44103;BME280;29769;42.178;24.742;2023-02-22T11:06:31;99319.31;;;27.80;19.76
44103;BME280;29769;42.178;24.742;2023-02-22T11:09:20;99313.06;;;28.57;19.45
44103;BME280;29769;42.178;24.742;2023-02-22T11:12:09;99304.06;;;29.03;18.95
44103;BME280;29769;42.178;24.742;2023-02-22T11:14:55;99310.28;;;28.10;18.85
44103;BME280;29769;42.178;24.742;2023-02-22T11:17:40;99286.22;;;28.63;18.97
44103;BME280;29769;42.178;24.742;2023-02-22T11:20:28;99302.00;;;28.21;19.18
44103;BME280;29769;42.178;24.742;2023-02-22T11:23:20;99295.13;;;28.37;19.10
44103;BME280;29769;42.178;24.742;2023-02-22T11:26:13;99296.16;;;28.92;18.56
44103;BME280;29769;42.178;24.742;2023-02-22T11:28:59;99277.22;;;27.78;18.93
44103;BME280;29769;42.178;24.742;2023-02-22T11:31:53;99268.28;;;27.09;19.91
44103;BME280;29769;42.178;24.742;2023-02-22T11:34:41;99282.50;;;27.89;19.35
44103;BME280;29769;42.178;24.742;2023-02-22T11:37:31;99273.41;;;28.65;18.74
44103;BME280;29769;42.178;24.742;2023-02-22T11:40:19;99269.56;;;27.93;19.11
44103;BME280;29769;42.178;24.742;2023-02-22T11:43:15;99276.16;;;28.56;18.28
44103;BME280;29769;42.178;24.742;2023-02-22T11:55:38;99247.44;;;28.36;18.68
44103;BME280;29769;42.178;24.742;2023-02-22T11:58:38;99244.16;;;27.26;18.88
44103;BME280;29769;42.178;24.742;2023-02-22T12:01:30;99235.81;;;27.39;18.95
44103;BME280;29769;42.178;24.742;2023-02-22T12:07:28;99240.38;;;27.67;19.83
44103;BME280;29769;42.178;24.742;2023-02-22T12:10:31;99235.84;;;26.99;19.62
44103;BME280;29769;42.178;24.742;2023-02-22T12:19:49;99217.88;;;26.39;19.86
44103;BME280;29769;42.178;24.742;2023-02-22T12:22:41;99222.91;;;27.52;19.30
44103;BME280;29769;42.178;24.742;2023-02-22T12:25:35;99224.91;;;26.91;19.80
44103;BME280;29769;42.178;24.742;2023-02-22T12:31:22;99224.84;;;27.31;19.45
44103;BME280;29769;42.178;24.742;2023-02-22T12:40:13;99218.88;;;28.04;18.57
44103;BME280;29769;42.178;24.742;2023-02-22T12:43:23;99212.88;;;28.29;18.37
44103;BME280;29769;42.178;24.742;2023-02-22T12:46:27;99222.25;;;28.35;18.63
44103;BME280;29769;42.178;24.742;2023-02-22T12:52:36;99221.13;;;28.09;18.21
44103;BME280;29769;42.178;24.742;2023-02-22T12:55:43;99196.59;;;27.73;19.14
44103;BME280;29769;42.178;24.742;2023-02-22T12:58:36;99201.53;;;28.07;19.02
44103;BME280;29769;42.178;24.742;2023-02-22T13:01:27;99169.56;;;26.76;19.68
44103;BME280;29769;42.178;24.742;2023-02-22T13:04:13;99201.25;;;26.74;20.22
44103;BME280;29769;42.178;24.742;2023-02-22T13:07:11;99197.56;;;26.75;19.81
44103;BME280;29769;42.178;24.742;2023-02-22T13:16:25;99193.75;;;27.75;19.05
44103;BME280;29769;42.178;24.742;2023-02-22T13:32:23;99176.03;;;29.81;17.42
44103;BME280;29769;42.178;24.742;2023-02-22T13:41:35;99178.09;;;27.78;18.55
44103;BME280;29769;42.178;24.742;2023-02-22T13:47:40;99173.34;;;29.64;17.65
44103;BME280;29769;42.178;24.742;2023-02-22T13:56:27;99164.84;;;29.58;17.97
44103;BME280;29769;42.178;24.742;2023-02-22T13:59:24;99166.66;;;28.13;18.71
44103;BME280;29769;42.178;24.742;2023-02-22T14:02:54;99168.38;;;28.51;18.96
44103;BME280;29769;42.178;24.742;2023-02-22T14:17:21;99182.00;;;28.22;18.96
44103;BME280;29769;42.178;24.742;2023-02-22T14:26:38;99173.03;;;28.59;18.49
44103;BME280;29769;42.178;24.742;2023-02-22T14:29:23;99169.34;;;28.87;18.86
44103;BME280;29769;42.178;24.742;2023-02-22T14:32:09;99177.97;;;28.73;18.89
44103;BME280;29769;42.178;24.742;2023-02-22T14:34:57;99178.72;;;28.09;19.49
44103;BME280;29769;42.178;24.742;2023-02-22T14:37:48;99187.47;;;27.84;19.21
44103;BME280;29769;42.178;24.742;2023-02-22T14:40:36;99178.97;;;27.69;19.47
44103;BME280;29769;42.178;24.742;2023-02-22T14:43:23;99185.78;;;27.83;19.04
44103;BME280;29769;42.178;24.742;2023-02-22T14:46:12;99182.91;;;27.46;19.74
44103;BME280;29769;42.178;24.742;2023-02-22T14:49:04;99177.63;;;26.96;19.63
44103;BME280;29769;42.178;24.742;2023-02-22T14:52:03;99181.13;;;26.47;19.69
44103;BME280;29769;42.178;24.742;2023-02-22T14:57:45;99184.16;;;25.82;20.44
44103;BME280;29769;42.178;24.742;2023-02-22T15:00:41;99176.47;;;25.78;21.00
44103;BME280;29769;42.178;24.742;2023-02-22T15:06:21;99182.25;;;25.73;21.03
44103;BME280;29769;42.178;24.742;2023-02-22T15:09:13;99184.28;;;25.81;20.72
44103;BME280;29769;42.178;24.742;2023-02-22T15:14:46;99188.03;;;25.68;21.74
44103;BME280;29769;42.178;24.742;2023-02-22T15:17:31;99188.56;;;25.51;21.51
44103;BME280;29769;42.178;24.742;2023-02-22T15:20:18;99190.53;;;25.49;22.13
44103;BME280;29769;42.178;24.742;2023-02-22T15:23:04;99178.75;;;25.30;21.95
44103;BME280;29769;42.178;24.742;2023-02-22T15:25:48;99191.56;;;24.94;22.12
44103;BME280;29769;42.178;24.742;2023-02-22T15:28:33;99178.75;;;24.53;22.60
44103;BME280;29769;42.178;24.742;2023-02-22T15:31:34;99194.53;;;24.35;22.94
44103;BME280;29769;42.178;24.742;2023-02-22T15:34:23;99195.88;;;24.41;22.87
44103;BME280;29769;42.178;24.742;2023-02-22T15:37:22;99196.47;;;24.67;22.84
44103;BME280;29769;42.178;24.742;2023-02-22T15:40:14;99185.72;;;24.67;22.78
44103;BME280;29769;42.178;24.742;2023-02-22T15:43:05;99200.88;;;24.68;22.65
44103;BME280;29769;42.178;24.742;2023-02-22T15:45:52;99198.44;;;24.65;22.84
44103;BME280;29769;42.178;24.742;2023-02-22T15:48:37;99200.53;;;24.50;22.84
44103;BME280;29769;42.178;24.742;2023-02-22T15:51:27;99204.38;;;24.02;23.51
44103;BME280;29769;42.178;24.742;2023-02-22T15:54:12;99203.00;;;23.02;23.97
44103;BME280;29769;42.178;24.742;2023-02-22T15:56:59;99203.66;;;22.44;24.41
44103;BME280;29769;42.178;24.742;2023-02-22T15:59:47;99206.47;;;22.17;24.99
44103;BME280;29769;42.178;24.742;2023-02-22T16:02:37;99212.38;;;21.97;25.62
44103;BME280;29769;42.178;24.742;2023-02-22T16:05:31;99214.94;;;21.47;26.13
44103;BME280;29769;42.178;24.742;2023-02-22T16:08:24;99210.06;;;21.12;26.45
44103;BME280;29769;42.178;24.742;2023-02-22T16:11:19;99184.19;;;20.31;27.07
44103;BME280;29769;42.178;24.742;2023-02-22T16:23:21;99201.03;;;19.29;28.31
44103;BME280;29769;42.178;24.742;2023-02-22T16:29:24;99231.78;;;19.05;29.08
44103;BME280;29769;42.178;24.742;2023-02-22T16:32:10;99241.13;;;18.81;29.43
44103;BME280;29769;42.178;24.742;2023-02-22T16:34:55;99231.59;;;18.61;29.69
44103;BME280;29769;42.178;24.742;2023-02-22T16:37:40;99245.66;;;18.47;30.01
44103;BME280;29769;42.178;24.742;2023-02-22T16:40:37;99245.78;;;18.29;30.54
44103;BME280;29769;42.178;24.742;2023-02-22T16:43:26;99237.31;;;17.88;31.25
44103;BME280;29769;42.178;24.742;2023-02-22T16:46:14;99256.31;;;17.63;31.69
44103;BME280;29769;42.178;24.742;2023-02-22T16:48:58;99263.41;;;17.45;32.11
44103;BME280;29769;42.178;24.742;2023-02-22T16:51:50;99259.09;;;17.25;32.37
44103;BME280;29769;42.178;24.742;2023-02-22T16:54:43;99262.09;;;17.18;32.37
44103;BME280;29769;42.178;24.742;2023-02-22T16:57:30;99260.88;;;16.89;32.90
44103;BME280;29769;42.178;24.742;2023-02-22T17:00:21;99259.72;;;16.76;33.26
44103;BME280;29769;42.178;24.742;2023-02-22T17:03:16;99272.84;;;16.79;33.80
44103;BME280;29769;42.178;24.742;2023-02-22T17:06:02;99285.34;;;16.77;34.54
44103;BME280;29769;42.178;24.742;2023-02-22T17:08:46;99278.66;;;16.87;34.16
44103;BME280;29769;42.178;24.742;2023-02-22T17:11:36;99244.91;;;16.52;34.40
44103;BME280;29769;42.178;24.742;2023-02-22T17:14:22;99288.63;;;16.63;33.90
44103;BME280;29769;42.178;24.742;2023-02-22T17:17:10;99281.34;;;16.48;33.75